Time;durP1;ratioP1;P1;durP2;ratioP2;P2;SDS_P1;SDS_P2;PMS_P1;PMS_P2;Temp;Humidity;BMP_temperature;BMP_pressure;BME280_temperature;BME280_humidity;BME280_pressure;Samples;Min_cycle;Max_cycle;Signal;HPM_P1;HPM_P2
2023/02/02 00:02:49;;;;;;;48.90;26.55;;;;;;;1.77;88.23;99482.63;1739688;81;21198;-85
2023/02/02 00:05:57;;;;;;;45.43;24.45;;;;;;;1.85;87.90;99479.23;1739778;82;21200;-79
2023/02/02 00:09:07;;;;;;;48.33;25.15;;;;;;;1.94;87.40;99475.70;1741094;82;21132;-80
2023/02/02 00:12:12;;;;;;;51.20;24.55;;;;;;;1.91;87.38;99473.27;1741270;81;21741;-86
2023/02/02 00:15:18;;;;;;;46.18;24.32;;;;;;;1.83;87.67;99477.16;1740775;82;21184;-80
2023/02/02 00:18:25;;;;;;;48.63;26.12;;;;;;;1.77;88.02;99475.88;1739829;81;21238;-86
2023/02/02 00:21:17;;;;;;;54.30;27.32;;;;;;;1.88;88.22;99477.59;1741055;81;21207;-87
2023/02/02 00:24:24;;;;;;;50.83;26.35;;;;;;;1.90;87.59;99477.81;1740748;82;21231;-86
2023/02/02 00:27:29;;;;;;;44.00;24.10;;;;;;;1.85;88.01;99479.23;1741073;81;21219;-80
2023/02/02 00:30:35;;;;;;;45.20;23.20;;;;;;;2.08;87.46;99472.57;1755917;82;21147;-81
2023/02/02 00:33:43;;;;;;;54.10;26.37;;;;;;;2.02;87.25;99469.95;1755915;82;21728;-87
2023/02/02 00:36:50;;;;;;;56.10;28.38;;;;;;;2.04;86.68;99470.65;1754714;80;21760;-86
2023/02/02 00:39:56;;;;;;;52.85;25.82;;;;;;;2.01;87.26;99461.98;1755589;82;21306;-85
2023/02/02 00:43:03;;;;;;;53.60;24.00;;;;;;;2.05;86.90;99458.01;1755006;80;21239;-80
2023/02/02 00:46:10;;;;;;;45.40;24.37;;;;;;;1.93;86.68;99460.02;1755376;82;21175;-85
2023/02/02 00:49:16;;;;;;;43.13;22.98;;;;;;;1.82;87.28;99455.23;1755878;82;21219;-80
2023/02/02 00:52:23;;;;;;;42.65;23.15;;;;;;;1.88;87.63;99464.11;1755275;80;21727;-79
2023/02/02 00:55:30;;;;;;;46.23;22.60;;;;;;;1.96;86.95;99461.55;1755237;82;21199;-84
2023/02/02 00:58:36;;;;;;;39.83;21.27;;;;;;;1.97;86.43;99455.16;1754483;80;21199;-79
2023/02/02 01:01:42;;;;;;;43.48;23.90;;;;;;;2.04;85.99;99453.11;1755829;80;21238;-85
2023/02/02 01:04:48;;;;;;;49.18;24.55;;;;;;;1.93;85.52;99451.92;1755814;82;21194;-85
2023/02/02 01:07:57;;;;;;;40.60;22.50;;;;;;;1.68;86.48;99454.66;1754571;80;21210;-80
2023/02/02 01:10:57;;;;;;;33.95;17.00;;;;;;;1.62;86.76;99458.42;1755375;82;21763;-86
2023/02/02 01:14:02;;;;;;;37.40;20.88;;;;;;;1.67;86.30;99452.11;1755864;82;21219;-86
2023/02/02 01:17:08;;;;;;;41.33;21.73;;;;;;;1.66;86.60;99452.61;1754933;80;21195;-80
2023/02/02 01:20:15;;;;;;;47.73;24.00;;;;;;;1.46;87.14;99449.55;1755861;82;21179;-81
2023/02/02 01:23:23;;;;;;;33.80;19.27;;;;;;;1.69;86.58;99442.88;1754598;80;21238;-84
2023/02/02 01:26:29;;;;;;;43.83;23.10;;;;;;;1.66;86.80;99444.52;1755002;80;21760;-81
2023/02/02 01:29:35;;;;;;;44.85;23.07;;;;;;;1.45;87.59;99450.51;1752693;82;21239;-80
2023/02/02 01:32:40;;;;;;;42.93;23.45;;;;;;;1.43;87.56;99452.50;1752565;80;21211;-81
2023/02/02 01:35:58;;;;;;;44.00;23.77;;;;;;;1.51;87.26;99448.12;1751975;81;21180;-85
2023/02/02 01:39:04;;;;;;;37.80;20.23;;;;;;;1.53;87.34;99443.94;1753272;82;21955;-86
2023/02/02 01:42:09;;;;;;;43.08;22.48;;;;;;;1.51;87.17;99450.83;1752163;80;21207;-86
2023/02/02 01:45:25;;;;;;;43.30;22.80;;;;;;;1.37;87.43;99432.36;1753197;82;21227;-80
2023/02/02 01:48:36;;;;;;;38.75;21.40;;;;;;;1.46;86.76;99434.22;1752036;80;21203;-80
2023/02/02 01:52:01;;;;;;;43.90;21.73;;;;;;;1.30;87.45;99426.31;1753366;80;21211;-80
2023/02/02 01:55:14;;;;;;;50.65;23.52;;;;;;;1.46;86.87;99429.33;1753502;82;21160;-84
2023/02/02 01:58:31;;;;;;;43.13;21.95;;;;;;;1.49;86.58;99440.66;1752035;80;21498;-86
2023/02/02 02:01:37;;;;;;;43.60;23.15;;;;;;;1.49;86.81;99439.81;1753365;80;21357;-85
2023/02/02 02:04:43;;;;;;;40.52;23.07;;;;;;;1.46;87.18;99449.55;1753345;82;21172;-85
2023/02/02 02:07:49;;;;;;;32.13;20.43;;;;;;;1.68;86.97;99454.66;1752434;80;21852;-86
2023/02/02 02:10:54;;;;;;;44.13;22.25;;;;;;;1.62;87.49;99455.23;1751828;82;21187;-85
2023/02/02 02:17:45;;;;;;;44.13;21.25;;;;;;;1.67;87.72;99455.66;1752709;80;21799;-86
2023/02/02 02:28:43;;;;;;;45.67;23.85;;;;;;;1.97;87.17;99443.88;1726168;82;21179;-80
2023/02/02 02:32:31;;;;;;;44.55;23.42;;;;;;;1.97;87.36;99446.57;1741458;81;21204;-79
2023/02/02 02:36:05;;;;;;;46.15;22.80;;;;;;;2.12;87.23;99438.04;1741155;82;21240;-80
2023/02/02 02:39:25;;;;;;;48.28;24.37;;;;;;;2.02;87.19;99438.05;1739858;82;21171;-81
2023/02/02 02:42:34;;;;;;;45.85;23.27;;;;;;;1.88;87.54;99442.03;1740354;81;21175;-84
2023/02/02 02:45:39;;;;;;;41.58;22.07;;;;;;;1.85;88.27;99441.48;1741074;82;21203;-86
2023/02/02 02:48:44;;;;;;;42.95;21.97;;;;;;;2.07;87.80;99449.30;1740051;82;21172;-84
2023/02/02 02:52:01;;;;;;;52.80;22.48;;;;;;;1.91;88.25;99458.44;1740918;81;21208;-81
2023/02/02 02:55:06;;;;;;;55.35;23.27;;;;;;;1.88;88.54;99460.05;1740974;82;21737;-86
2023/02/02 02:58:19;;;;;;;47.83;21.57;;;;;;;1.86;88.68;99463.41;1725822;82;21219;-85
2023/02/02 03:01:42;;;;;;;44.40;21.77;;;;;;;1.96;88.64;99464.25;1739640;81;21187;-81
2023/02/02 03:05:02;;;;;;;41.73;22.30;;;;;;;1.95;89.06;99476.05;1740951;82;21152;-85
2023/02/02 03:08:16;;;;;;;48.60;22.70;;;;;;;1.98;89.18;99476.63;1740166;81;21244;-85
2023/02/02 03:11:21;;;;;;;46.33;21.82;;;;;;;1.98;89.15;99486.56;1741016;81;21152;-86
2023/02/02 03:14:27;;;;;;;45.05;23.60;;;;;;;1.96;88.85;99489.38;1741018;82;21239;-85
2023/02/02 03:17:35;;;;;;;52.53;24.37;;;;;;;1.83;89.46;99491.98;1740559;81;21203;-80
2023/02/02 03:20:41;;;;;;;47.03;23.38;;;;;;;1.80;89.75;99494.48;1739666;81;21156;-86
2023/02/02 03:23:47;;;;;;;42.95;22.15;;;;;;;1.92;89.78;99496.55;1739765;81;21215;-86
2023/02/02 03:26:53;;;;;;;41.48;20.75;;;;;;;2.03;89.50;99486.48;1739874;81;21226;-86
2023/02/02 03:29:59;;;;;;;43.73;22.60;;;;;;;2.13;89.67;99499.97;1740969;82;21207;-86
2023/02/02 03:33:05;;;;;;;46.35;22.77;;;;;;;2.23;89.37;99493.22;1750780;80;21182;-87
2023/02/02 03:36:11;;;;;;;50.15;22.77;;;;;;;2.07;89.88;99489.76;1753185;82;21717;-86
2023/02/02 03:39:18;;;;;;;47.27;24.87;;;;;;;2.36;89.06;99495.12;1752038;81;21215;-86
2023/02/02 03:42:24;;;;;;;49.18;24.35;;;;;;;2.41;89.06;99493.35;1751823;80;21203;-79
2023/02/02 03:45:39;;;;;;;49.93;24.52;;;;;;;2.48;88.70;99499.36;1751924;82;21183;-86
2023/02/02 03:48:45;;;;;;;45.58;22.73;;;;;;;2.19;89.43;99499.39;1734709;82;21199;-80
2023/02/02 03:51:51;;;;;;;46.45;22.27;;;;;;;2.52;88.88;99504.83;1753036;80;21803;-80
2023/02/02 03:54:57;;;;;;;49.83;23.30;;;;;;;2.52;88.58;99502.62;1753169;82;21736;-83
2023/02/02 03:58:03;;;;;;;50.05;24.20;;;;;;;2.65;88.73;99509.93;1752412;80;21724;-86
2023/02/02 04:01:16;;;;;;;46.28;23.60;;;;;;;2.78;87.84;99505.08;1753202;82;21233;-81
2023/02/02 04:04:21;;;;;;;53.10;24.60;;;;;;;2.62;88.34;99507.51;1753375;82;22066;-86
2023/02/02 04:07:28;;;;;;;42.83;22.80;;;;;;;2.65;88.62;99511.28;1752668;80;21203;-80
2023/02/02 04:10:34;;;;;;;45.23;22.58;;;;;;;2.68;88.54;99510.12;1753337;82;21203;-80
2023/02/02 04:13:42;;;;;;;51.70;25.77;;;;;;;2.73;88.11;99510.06;1752353;80;21866;-80
2023/02/02 04:16:48;;;;;;;38.65;21.42;;;;;;;2.72;87.84;99516.44;1753090;80;21247;-80
2023/02/02 04:19:57;;;;;;;53.65;26.42;;;;;;;2.70;87.88;99513.05;1752142;82;21199;-85
2023/02/02 04:23:02;;;;;;;46.92;24.57;;;;;;;2.61;87.88;99516.61;1751904;80;21263;-81
2023/02/02 04:26:09;;;;;;;68.25;31.37;;;;;;;2.47;88.23;99515.70;1753203;82;21148;-84
2023/02/02 04:29:16;;;;;;;52.60;25.77;;;;;;;2.39;88.75;99521.81;1752623;82;21207;-86
2023/02/02 04:32:23;;;;;;;39.20;22.00;;;;;;;2.42;88.62;99520.69;1751128;80;21172;-80
2023/02/02 04:35:29;;;;;;;43.17;22.30;;;;;;;2.56;88.70;99522.45;1753423;82;21227;-80
2023/02/02 04:38:34;;;;;;;39.18;19.87;;;;;;;2.63;88.81;99522.70;1751799;80;21207;-86
2023/02/02 04:41:40;;;;;;;41.73;22.10;;;;;;;2.76;88.76;99526.45;1751837;80;21207;-85
2023/02/02 04:44:46;;;;;;;37.38;21.93;;;;;;;2.78;88.35;99521.28;1752281;82;21195;-85
2023/02/02 04:47:52;;;;;;;37.78;21.05;;;;;;;2.58;88.65;99524.98;1752369;80;21207;-80
2023/02/02 04:51:07;;;;;;;41.37;20.70;;;;;;;2.73;88.52;99523.56;1751715;81;21199;-80
2023/02/02 04:54:14;;;;;;;38.25;21.48;;;;;;;2.66;88.43;99529.17;1753294;82;21685;-79
2023/02/02 04:57:19;;;;;;;43.48;22.50;;;;;;;2.75;88.15;99534.21;1752847;80;21210;-85
2023/02/02 05:00:24;;;;;;;37.35;20.10;;;;;;;2.66;88.43;99542.68;1752002;82;21176;-79
2023/02/02 05:03:30;;;;;;;41.15;21.23;;;;;;;2.67;88.23;99536.27;1751739;80;21254;-86
2023/02/02 05:06:36;;;;;;;38.38;17.80;;;;;;;2.79;88.08;99549.98;1753229;80;21215;-86
2023/02/02 05:09:35;;;;;;;33.67;18.02;;;;;;;2.68;88.43;99546.11;1752685;82;21758;-86
2023/02/02 05:12:28;;;;;;;40.28;18.77;;;;;;;2.81;87.99;99550.67;1751963;80;21199;-80
2023/02/02 05:15:33;;;;;;;34.35;18.42;;;;;;;2.60;88.89;99552.72;1752073;82;21179;-81
2023/02/02 05:18:39;;;;;;;30.80;16.17;;;;;;;2.65;89.01;99554.48;1751735;80;21736;-80
2023/02/02 05:21:48;;;;;;;36.28;17.20;;;;;;;2.81;88.39;99554.73;1753163;80;21219;-79
2023/02/02 05:24:54;;;;;;;37.50;20.08;;;;;;;2.98;87.52;99569.34;1753126;82;21780;-79
2023/02/02 05:28:00;;;;;;;36.35;20.08;;;;;;;2.66;88.19;99571.03;1771918;79;21732;-86
2023/02/02 05:31:06;;;;;;;34.35;18.98;;;;;;;2.56;89.47;99567.49;1763774;80;21808;-86
2023/02/02 05:34:12;;;;;;;36.93;19.75;;;;;;;2.61;89.95;99576.02;1775416;79;21235;-80
2023/02/02 05:37:19;;;;;;;37.40;20.02;;;;;;;2.63;89.97;99564.55;1770728;79;21298;-80
2023/02/02 05:40:26;;;;;;;42.95;21.93;;;;;;;2.80;89.40;99569.73;1762251;81;21192;-85
2023/02/02 05:43:36;;;;;;;37.20;19.80;;;;;;;2.92;89.06;99581.25;1739774;81;21235;-85
2023/02/02 05:46:44;;;;;;;39.92;22.02;;;;;;;2.95;89.14;99569.63;1746105;81;21203;-79
2023/02/02 05:49:43;;;;;;;;;;;;;;;2.91;88.97;99579.02;1772265;79;21736;-79
2023/02/02 05:52:50;;;;;;;42.45;19.73;;;;;;;2.89;89.04;99580.17;1769080;79;20191;-79
2023/02/02 05:55:56;;;;;;;40.23;21.80;;;;;;;2.85;89.07;99584.16;1771149;81;21144;-80
2023/02/02 05:59:06;;;;;;;44.23;21.60;;;;;;;2.88;89.41;99587.93;1761385;81;21228;-80
2023/02/02 06:02:09;;;;;;;40.65;21.77;;;;;;;2.79;89.99;99589.14;1765573;79;21277;-86
2023/02/02 06:05:14;;;;;;;43.42;21.62;;;;;;;2.77;90.61;99589.77;1760023;80;21203;-86
2023/02/02 06:08:20;;;;;;;39.75;21.20;;;;;;;2.91;90.40;99590.32;1762454;79;21195;-80
2023/02/02 06:11:26;;;;;;;40.12;23.05;;;;;;;2.93;90.21;99597.80;1763991;78;21349;-86
2023/02/02 06:14:32;;;;;;;39.30;21.55;;;;;;;2.96;89.94;99602.39;1774357;79;21174;-79
2023/02/02 06:17:37;;;;;;;43.15;22.07;;;;;;;3.03;89.83;99608.94;1766532;79;21200;-81
2023/02/02 06:20:45;;;;;;;38.02;21.27;;;;;;;3.24;88.62;99599.27;1768690;79;21232;-79
2023/02/02 06:23:52;;;;;;;37.48;21.93;;;;;;;3.28;88.22;99612.00;1765890;79;21232;-87
2023/02/02 06:27:01;;;;;;;43.48;23.67;;;;;;;3.25;87.98;99606.41;1766647;79;22294;-87
2023/02/02 06:30:13;;;;;;;39.73;22.42;;;;;;;3.26;88.25;99614.86;1777077;79;21812;-86
2023/02/02 06:33:18;;;;;;;45.90;23.07;;;;;;;3.22;89.06;99618.84;1768120;79;21172;-84
2023/02/02 06:36:27;;;;;;;48.28;24.75;;;;;;;3.29;88.48;99612.34;1770783;78;21689;-79
2023/02/02 06:39:33;;;;;;;58.33;28.15;;;;;;;3.23;88.39;99616.49;1771204;79;21173;-85
2023/02/02 06:42:38;;;;;;;44.45;24.10;;;;;;;3.44;87.70;99614.95;1767374;79;21239;-85
2023/02/02 06:45:44;;;;;;;42.85;24.35;;;;;;;3.25;88.27;99618.56;1755259;79;21216;-85
2023/02/02 06:48:50;;;;;;;44.50;24.32;;;;;;;3.41;88.14;99606.28;1780146;79;21222;-84
2023/02/02 06:51:55;;;;;;;38.80;22.75;;;;;;;3.39;88.17;99608.26;1782906;79;21311;-83
2023/02/02 06:55:02;;;;;;;37.60;22.62;;;;;;;3.49;88.12;99602.34;1784971;79;21109;-84
2023/02/02 06:58:10;;;;;;;38.53;21.82;;;;;;;3.57;87.20;99607.84;1783909;79;21188;-79
2023/02/02 07:01:18;;;;;;;39.90;22.05;;;;;;;3.45;87.61;99616.65;1777010;79;21180;-79
2023/02/02 07:04:26;;;;;;;42.70;21.82;;;;;;;3.57;87.46;99617.30;1781141;79;21144;-78
2023/02/02 07:07:32;;;;;;;37.80;22.45;;;;;;;3.67;87.35;99611.84;1774796;79;21821;-79
2023/02/02 07:10:46;;;;;;;39.48;20.37;;;;;;;3.85;87.84;99618.17;1782223;79;21771;-79
2023/02/02 07:14:07;;;;;;;30.72;18.12;;;;;;;3.79;87.57;99623.69;1780337;79;21225;-79
2023/02/02 07:17:12;;;;;;;32.67;19.57;;;;;;;3.94;87.28;99625.89;1720987;82;21169;-79
2023/02/02 07:20:18;;;;;;;37.67;18.32;;;;;;;3.92;86.61;99631.47;1768426;79;21204;-80
2023/02/02 07:23:24;;;;;;;39.08;20.08;;;;;;;3.96;86.16;99630.67;1726534;82;21194;-79
2023/02/02 07:26:30;;;;;;;35.73;20.45;;;;;;;3.88;86.89;99634.63;1773258;79;21215;-79
2023/02/02 07:29:38;;;;;;;31.82;20.08;;;;;;;3.98;86.80;99640.33;1748559;82;21236;-78
2023/02/02 07:32:45;;;;;;;28.10;16.90;;;;;;;4.02;86.85;99636.83;1753235;80;21196;-77
2023/02/02 07:35:51;;;;;;;24.10;15.53;;;;;;;4.30;86.51;99636.30;1757164;80;21219;-79
2023/02/02 07:39:03;;;;;;;26.33;16.77;;;;;;;4.47;85.55;99640.02;1764877;80;21215;-84
2023/02/02 07:42:09;;;;;;;28.15;18.12;;;;;;;4.59;84.79;99648.28;1774131;80;21164;-85
2023/02/02 07:45:15;;;;;;;35.13;18.95;;;;;;;4.52;84.18;99649.91;1765310;80;21248;-83
2023/02/02 07:48:22;;;;;;;29.63;18.37;;;;;;;4.63;83.57;99654.25;1758397;80;21529;-84
2023/02/02 07:51:28;;;;;;;31.23;18.73;;;;;;;4.48;84.01;99648.01;1760252;81;21193;-84
2023/02/02 07:54:35;;;;;;;31.02;17.32;;;;;;;4.56;84.18;99641.80;1761241;80;21173;-84
2023/02/02 07:57:41;;;;;;;25.70;16.15;;;;;;;4.43;84.42;99647.62;1738556;80;21753;-84
2023/02/02 08:00:47;;;;;;;25.90;16.85;;;;;;;4.53;83.96;99654.32;1779744;79;21226;-78
2023/02/02 08:03:53;;;;;;;35.83;21.10;;;;;;;4.61;83.39;99647.61;1777736;79;21765;-78
2023/02/02 08:07:00;;;;;;;30.02;19.05;;;;;;;4.58;83.49;99649.29;1793298;78;21198;-79
2023/02/02 08:10:06;;;;;;;27.90;18.65;;;;;;;4.76;83.18;99640.67;1788148;79;21155;-78
2023/02/02 08:13:16;;;;;;;32.08;18.65;;;;;;;4.82;83.08;99636.48;1782840;79;21195;-78
2023/02/02 08:16:21;;;;;;;30.10;17.32;;;;;;;4.87;82.56;99641.77;1783490;79;21170;-84
2023/02/02 08:19:27;;;;;;;24.25;16.10;;;;;;;4.91;82.52;99645.53;1788885;79;21247;-79
2023/02/02 08:22:33;;;;;;;28.57;16.12;;;;;;;5.18;82.18;99653.56;1789449;79;21733;-78
2023/02/02 08:25:49;;;;;;;31.20;17.25;;;;;;;5.34;81.30;99649.59;1790124;79;21156;-79
2023/02/02 08:29:00;;;;;;;28.20;16.17;;;;;;;5.36;81.58;99658.44;1787695;79;21208;-78
2023/02/02 08:32:08;;;;;;;27.02;15.35;;;;;;;5.56;81.69;99657.72;1787555;78;21262;-79
2023/02/02 08:35:13;;;;;;;27.52;15.10;;;;;;;5.77;80.83;99661.39;1787648;79;21188;-84
2023/02/02 08:38:19;;;;;;;21.12;13.95;;;;;;;5.66;80.62;99668.46;1788516;77;21211;-84
2023/02/02 08:41:28;;;;;;;26.15;14.90;;;;;;;5.62;80.83;99667.08;1785735;79;21772;-85
2023/02/02 08:44:33;;;;;;;24.02;13.65;;;;;;;5.68;80.41;99671.84;1784303;79;22098;-84
2023/02/02 08:47:40;;;;;;;24.80;15.75;;;;;;;5.85;79.37;99665.52;1782713;78;21726;-84
2023/02/02 08:50:48;;;;;;;30.02;16.75;;;;;;;5.70;78.51;99664.42;1780344;79;21157;-84
2023/02/02 08:53:54;;;;;;;24.05;14.83;;;;;;;5.55;78.31;99666.88;1769196;79;21459;-84
2023/02/02 08:56:59;;;;;;;25.02;14.85;;;;;;;5.52;79.07;99661.76;1783009;78;21200;-84
2023/02/02 09:00:05;;;;;;;21.10;13.43;;;;;;;5.55;78.77;99653.31;1763051;80;21231;-85
2023/02/02 09:03:11;;;;;;;23.38;14.47;;;;;;;5.62;78.54;99659.78;1765859;80;21274;-84
2023/02/02 09:06:25;;;;;;;23.18;14.98;;;;;;;5.64;78.10;99654.19;1780746;79;21161;-85
2023/02/02 09:09:30;;;;;;;22.15;15.25;;;;;;;5.64;78.36;99651.47;1742282;81;21257;-83
2023/02/02 09:12:37;;;;;;;25.97;16.50;;;;;;;5.71;78.07;99652.55;1798280;78;21176;-84
2023/02/02 09:15:42;;;;;;;26.97;17.27;;;;;;;5.75;78.04;99652.57;1744379;81;21776;-84
2023/02/02 09:18:48;;;;;;;33.08;18.87;;;;;;;5.79;77.66;99651.24;1772772;79;21168;-83
2023/02/02 09:21:55;;;;;;;23.62;15.30;;;;;;;5.70;77.49;99650.00;1774962;80;21163;-85
2023/02/02 09:25:01;;;;;;;25.02;15.65;;;;;;;5.82;77.57;99645.47;1794156;79;21159;-84
2023/02/02 09:28:07;;;;;;;24.20;14.73;;;;;;;5.80;77.10;99644.80;1773811;80;21196;-79
2023/02/02 09:31:12;;;;;;;25.30;16.10;;;;;;;5.69;76.70;99636.91;1775450;80;21786;-79
2023/02/02 09:34:19;;;;;;;29.23;16.05;;;;;;;5.71;76.43;99640.33;1793969;79;21196;-80
2023/02/02 09:37:25;;;;;;;36.40;18.77;;;;;;;5.71;76.21;99638.98;1747093;81;21873;-80
2023/02/02 09:40:30;;;;;;;24.60;15.65;;;;;;;5.66;76.97;99641.33;1741608;81;21707;-80
2023/02/02 09:44:12;;;;;;;25.92;16.00;;;;;;;5.84;77.11;99642.61;1773280;79;21183;-85
2023/02/02 09:47:53;;;;;;;26.70;16.00;;;;;;;5.92;76.69;99648.60;1775740;80;21217;-85
2023/02/02 09:51:04;;;;;;;26.00;16.07;;;;;;;5.85;76.93;99650.58;1776936;80;21718;-84
2023/02/02 09:54:13;;;;;;;;;;;;;;;5.84;77.48;99646.69;1775056;80;21860;-84
2023/02/02 09:57:27;;;;;;;19.73;13.43;;;;;;;5.71;77.90;99649.83;1772234;80;20257;-84
2023/02/02 10:00:41;;;;;;;20.72;12.13;;;;;;;5.78;76.68;99657.66;1734288;81;21188;-83
2023/02/02 10:04:10;;;;;;;22.30;12.93;;;;;;;5.57;76.60;99653.98;1739846;81;21197;-78
2023/02/02 10:07:22;;;;;;;21.05;12.98;;;;;;;5.36;76.91;99655.73;1702942;83;21218;-84
2023/02/02 10:10:44;;;;;;;26.57;14.33;;;;;;;5.05;77.79;99644.98;1754810;80;21160;-85
2023/02/02 10:13:52;;;;;;;25.77;13.20;;;;;;;4.96;78.11;99652.69;1786524;79;21152;-85
2023/02/02 10:17:00;;;;;;;26.42;15.40;;;;;;;4.87;78.31;99658.03;1790078;79;21203;-85
2023/02/02 10:20:23;;;;;;;24.52;15.03;;;;;;;4.84;78.62;99661.55;1783842;80;21142;-84
2023/02/02 10:23:46;;;;;;;33.40;15.50;;;;;;;4.80;79.06;99660.19;1768408;80;21266;-84
2023/02/02 10:27:12;;;;;;;25.25;14.75;;;;;;;4.74;79.49;99658.92;1773517;80;21259;-79
2023/02/02 10:30:26;;;;;;;25.15;14.60;;;;;;;4.67;79.65;99656.50;1742266;81;21253;-79
2023/02/02 10:33:47;;;;;;;21.12;11.90;;;;;;;4.64;80.08;99647.31;1768475;80;21192;-83
2023/02/02 10:37:01;;;;;;;;;;;;;;;4.50;80.33;99653.27;1787979;79;21688;-82
2023/02/02 10:40:42;;;;;;;20.88;11.68;;;;;;;4.45;80.28;99646.10;1777011;79;20645;-78
2023/02/02 10:44:12;;;;;;;21.15;12.45;;;;;;;4.41;79.79;99645.55;1770663;79;21173;-79
2023/02/02 10:47:22;;;;;;;30.60;15.13;;;;;;;4.27;81.09;99633.38;1760911;80;21165;-79
2023/02/02 10:50:27;;;;;;;29.07;15.97;;;;;;;4.33;81.16;99638.21;1772333;79;21224;-84
2023/02/02 10:53:35;;;;;;;23.70;12.75;;;;;;;4.48;81.21;99640.39;1766076;79;21741;-84
2023/02/02 10:56:51;;;;;;;19.20;10.30;;;;;;;4.60;82.02;99638.63;1759938;80;21180;-85
2023/02/02 11:00:23;;;;;;;20.40;12.88;;;;;;;4.80;81.67;99638.00;1767839;79;21377;-85
2023/02/02 11:03:39;;;;;;;30.15;15.68;;;;;;;4.61;82.10;99636.77;1750658;79;21158;-85
2023/02/02 11:06:51;;;;;;;31.55;16.15;;;;;;;4.60;81.96;99635.08;1733838;81;21212;-77
2023/02/02 11:09:58;;;;;;;32.90;16.70;;;;;;;4.72;82.46;99639.27;1732022;81;21193;-77
2023/02/02 11:13:04;;;;;;;28.30;16.02;;;;;;;5.01;82.15;99634.09;1752613;80;21263;-77
2023/02/02 11:16:28;;;;;;;26.02;16.67;;;;;;;5.00;82.45;99637.82;1771693;79;21171;-77
2023/02/02 11:19:38;;;;;;;29.30;14.70;;;;;;;4.98;82.18;99635.25;1722345;82;21828;-77
2023/02/02 11:22:44;;;;;;;28.02;15.43;;;;;;;4.90;82.46;99636.56;1770030;79;21204;-77
2023/02/02 11:25:49;;;;;;;30.90;16.52;;;;;;;4.96;82.61;99632.36;1747589;80;21160;-82
2023/02/02 11:28:57;;;;;;;30.92;19.25;;;;;;;4.86;82.96;99637.88;1771737;79;21756;-78
2023/02/02 11:32:02;;;;;;;30.92;18.67;;;;;;;4.85;82.94;99638.89;1762864;79;21721;-84
2023/02/02 11:35:28;;;;;;;31.57;18.35;;;;;;;4.76;83.33;99631.19;1759568;79;21183;-83
2023/02/02 11:38:34;;;;;;;33.95;19.75;;;;;;;4.86;83.14;99641.94;1771922;80;21188;-78
2023/02/02 11:41:40;;;;;;;32.45;18.00;;;;;;;4.85;82.74;99637.03;1804742;78;21185;-78
2023/02/02 11:44:47;;;;;;;28.57;17.80;;;;;;;4.88;82.76;99635.34;1807536;79;21221;-79
2023/02/02 11:47:52;;;;;;;32.85;17.17;;;;;;;4.74;83.63;99634.53;1801440;78;21193;-79
2023/02/02 11:51:04;;;;;;;30.00;13.75;;;;;;;4.85;84.49;99623.98;1801707;79;21249;-79
2023/02/02 11:54:28;;;;;;;24.95;14.25;;;;;;;4.79;85.00;99631.36;1815448;79;21156;-82
2023/02/02 11:57:34;;;;;;;28.07;15.60;;;;;;;4.92;85.45;99629.62;1802406;78;21180;-83
2023/02/02 12:00:40;;;;;;;30.65;14.65;;;;;;;5.32;84.58;99634.00;1795406;79;21224;-82
2023/02/02 12:03:46;;;;;;;25.45;13.08;;;;;;;5.44;84.74;99642.70;1784463;80;21150;-78
2023/02/02 12:06:52;;;;;;;29.48;13.70;;;;;;;5.53;85.35;99652.60;1783508;79;21170;-83
2023/02/02 12:09:57;;;;;;;20.92;12.53;;;;;;;5.72;85.06;99646.61;1792007;79;21167;-79
2023/02/02 12:13:24;;;;;;;21.75;12.13;;;;;;;5.89;84.42;99647.89;1756559;80;21172;-78
2023/02/02 12:16:54;;;;;;;25.30;12.45;;;;;;;5.70;84.96;99652.20;1781282;79;21215;-79
2023/02/02 12:20:25;;;;;;;27.15;13.80;;;;;;;5.63;84.10;99657.91;1779514;79;21758;-78
2023/02/02 12:23:33;;;;;;;23.07;11.93;;;;;;;5.74;83.07;99662.20;1779068;79;21234;-80
2023/02/02 12:26:42;;;;;;;23.45;11.95;;;;;;;5.43;84.11;99657.80;1780829;80;21227;-79
2023/02/02 12:30:11;;;;;;;19.32;11.35;;;;;;;5.74;83.17;99659.02;1772725;79;21136;-83
2023/02/02 12:33:53;;;;;;;27.95;11.78;;;;;;;5.59;82.81;99666.02;1750646;80;21760;-78
2023/02/02 12:37:33;;;;;;;20.72;10.93;;;;;;;5.43;82.14;99660.51;1781464;79;21800;-80
2023/02/02 12:40:54;;;;;;;29.45;12.70;;;;;;;5.26;81.97;99665.80;1783414;79;22063;-84
2023/02/02 12:44:15;;;;;;;28.98;12.43;;;;;;;5.15;82.50;99668.77;1785693;79;21183;-83
2023/02/02 12:47:42;;;;;;;19.32;11.68;;;;;;;5.07;82.01;99665.98;1781421;79;21132;-78
2023/02/02 12:51:25;;;;;;;22.30;12.85;;;;;;;4.83;82.66;99664.77;1717689;79;21179;-83
2023/02/02 12:54:42;;;;;;;24.20;11.38;;;;;;;4.75;83.57;99662.00;1768851;79;21179;-84
2023/02/02 12:58:19;;;;;;;29.32;11.90;;;;;;;4.77;84.15;99664.55;1781540;79;21220;-79
2023/02/02 13:01:40;;;;;;;24.35;11.15;;;;;;;4.86;84.14;99664.47;1794483;78;21151;-79
2023/02/02 13:05:28;;;;;;;17.35;8.73;;;;;;;5.00;83.48;99667.13;1790281;79;21474;-82
2023/02/02 13:09:12;;;;;;;20.68;10.65;;;;;;;5.17;82.99;99670.80;1760058;80;21223;-84
2023/02/02 13:12:18;;;;;;;23.47;10.68;;;;;;;5.10;82.66;99669.75;1800665;78;21233;-79
2023/02/02 13:15:25;;;;;;;16.45;8.78;;;;;;;5.20;82.55;99669.66;1783845;79;21217;-84
2023/02/02 13:18:29;;;;;;;27.48;11.20;;;;;;;5.30;82.08;99671.77;1800676;78;21209;-78
2023/02/02 13:21:18;;;;;;;19.42;11.03;;;;;;;5.26;82.15;99680.71;1798615;78;21487;-78
2023/02/02 13:24:11;;;;;;;17.42;8.85;;;;;;;5.39;81.74;99680.31;1796033;79;21558;-83
2023/02/02 13:26:58;;;;;;;23.07;10.63;;;;;;;5.39;81.54;99680.31;1791262;78;21779;-85
2023/02/02 13:30:00;;;;;;;22.42;10.53;;;;;;;5.42;81.37;99681.87;1786092;79;21769;-80
2023/02/02 13:32:46;;;;;;;23.32;11.18;;;;;;;5.26;81.89;99672.58;1789015;78;21165;-81
2023/02/02 13:36:12;;;;;;;15.05;8.63;;;;;;;5.21;81.65;99679.48;1782475;80;21177;-85
2023/02/02 13:39:35;;;;;;;17.92;9.75;;;;;;;5.04;81.40;99678.02;1761506;80;21130;-84
2023/02/02 13:42:59;;;;;;;18.37;9.63;;;;;;;5.01;80.89;99681.53;1797568;78;21178;-84
2023/02/02 13:46:33;;;;;;;22.07;10.38;;;;;;;4.72;81.20;99685.33;1746622;82;21251;-83
2023/02/02 13:49:49;;;;;;;21.20;11.40;;;;;;;4.69;81.12;99683.42;1789380;79;21156;-79
2023/02/02 13:53:13;;;;;;;20.72;11.05;;;;;;;4.54;81.31;99687.16;1778943;79;21173;-79
2023/02/02 13:57:04;;;;;;;20.85;10.72;;;;;;;4.22;82.33;99693.90;1784006;80;21524;-83
2023/02/02 14:00:32;;;;;;;17.32;9.48;;;;;;;4.17;82.55;99698.06;1784065;80;21201;-79
2023/02/02 14:03:51;;;;;;;25.32;11.35;;;;;;;3.80;83.89;99697.08;1760518;81;21249;-78
2023/02/02 14:07:02;;;;;;;;;;;;;;;3.74;83.78;99697.67;1789827;79;21729;-79
2023/02/02 14:09:57;;;;;;;27.25;14.30;;;;;;;3.65;83.80;99698.55;1814855;79;20412;-78
2023/02/02 14:13:02;;;;;;;21.73;12.35;;;;;;;3.74;83.19;99705.79;1815764;77;21183;-79
2023/02/02 14:16:10;;;;;;;18.75;9.58;;;;;;;3.55;83.61;99703.14;1815548;79;21267;-80
2023/02/02 14:19:39;;;;;;;17.32;9.88;;;;;;;3.52;83.61;99703.42;1814742;79;21156;-85
2023/02/02 14:22:53;;;;;;;14.87;9.00;;;;;;;3.53;83.05;99704.66;1815899;77;21759;-78
2023/02/02 14:26:14;;;;;;;21.07;11.78;;;;;;;3.19;83.88;99708.31;1815234;79;21152;-79
2023/02/02 14:29:44;;;;;;;21.85;11.25;;;;;;;3.11;84.39;99704.66;1815618;79;21155;-78
2023/02/02 14:32:49;;;;;;;21.37;11.08;;;;;;;2.66;85.91;99704.70;1815550;77;21152;-85
2023/02/02 14:35:59;;;;;;;24.35;11.97;;;;;;;2.63;86.75;99710.37;1815743;79;21820;-85
2023/02/02 14:39:12;;;;;;;21.45;10.20;;;;;;;2.63;86.99;99713.56;1816152;79;21175;-85
2023/02/02 14:46:31;;;;;;;25.80;13.45;;;;;;;2.68;86.97;99720.28;1813696;79;21153;-79
2023/02/02 14:49:39;;;;;;;26.42;11.25;;;;;;;2.69;86.93;99719.28;1813747;79;21129;-84
2023/02/02 14:52:46;;;;;;;20.80;11.03;;;;;;;2.47;87.54;99719.02;1812175;78;21187;-81
2023/02/02 14:56:15;;;;;;;22.45;12.95;;;;;;;2.50;87.42;99723.30;1811994;79;21195;-86
2023/02/02 14:59:35;;;;;;;21.87;11.18;;;;;;;2.58;86.86;99727.98;1813789;79;21163;-86
2023/02/02 15:02:45;;;;;;;20.95;11.95;;;;;;;2.51;86.78;99724.50;1812750;78;21259;-86
2023/02/02 15:05:52;;;;;;;21.90;11.53;;;;;;;2.39;87.13;99738.25;1794627;80;21181;-79